Time;durP1;ratioP1;P1;durP2;ratioP2;P2;SDS_P1;SDS_P2;PMS_P1;PMS_P2;Temp;Humidity;BMP_temperature;BMP_pressure;BME280_temperature;BME280_humidity;BME280_pressure;Samples;Min_cycle;Max_cycle;Signal;HPM_P1;HPM_P2
2023/11/17 00:01:38;;;;;;;30.67;22.02;;;21.40;99.90;;;;;;5016139;28;20065;-64
2023/11/17 00:04:05;;;;;;;31.33;23.13;;;21.50;99.90;;;;;;5016246;28;20062;-65
2023/11/17 00:06:33;;;;;;;34.42;24.15;;;21.50;99.90;;;;;;5016623;28;20117;-65
2023/11/17 00:09:00;;;;;;;38.55;22.88;;;21.40;99.90;;;;;;5015252;28;20155;-68
2023/11/17 00:11:27;;;;;;;40.15;24.15;;;21.30;99.90;;;;;;5016065;28;20082;-69
2023/11/17 00:13:54;;;;;;;37.35;27.40;;;21.30;99.90;;;;;;5014535;28;20059;-67
2023/11/17 00:16:21;;;;;;;76.55;54.78;;;21.30;99.90;;;;;;5014636;28;20587;-68
2023/11/17 00:18:48;;;;;;;48.83;31.55;;;21.20;99.90;;;;;;5015285;28;20058;-67
2023/11/17 00:21:15;;;;;;;62.08;26.15;;;21.20;99.90;;;;;;5010722;28;20518;-69
2023/11/17 00:23:41;;;;;;;39.97;26.85;;;21.20;99.90;;;;;;5012467;28;20086;-68
2023/11/17 00:26:08;;;;;;;45.05;26.40;;;21.10;99.90;;;;;;5012766;28;20127;-68
2023/11/17 00:28:42;;;;;;;44.33;25.17;;;21.10;99.90;;;;;;5010803;28;20075;-66
2023/11/17 00:31:10;;;;;;;52.17;26.92;;;21.00;99.90;;;;;;5012798;28;20077;-67
2023/11/17 00:33:37;;;;;;;45.20;25.15;;;21.00;99.90;;;;;;5011016;28;20062;-63
2023/11/17 00:36:04;;;;;;;46.75;27.42;;;20.90;99.90;;;;;;5013023;28;20534;-66
2023/11/17 00:38:34;;;;;;;44.28;26.35;;;20.90;99.90;;;;;;5012418;28;20079;-67
2023/11/17 00:41:02;;;;;;;39.92;26.52;;;20.90;99.90;;;;;;5012163;28;20135;-66
2023/11/17 00:43:30;;;;;;;44.92;26.98;;;20.80;99.90;;;;;;5012536;28;20112;-66
2023/11/17 00:45:58;;;;;;;44.30;25.55;;;20.80;99.90;;;;;;5012877;28;20072;-66
2023/11/17 00:48:25;;;;;;;43.63;26.27;;;20.70;99.90;;;;;;5011764;28;20073;-66
2023/11/17 00:50:53;;;;;;;39.33;25.40;;;20.70;99.90;;;;;;5013172;28;20547;-66
2023/11/17 00:53:26;;;;;;;48.60;26.75;;;20.60;99.90;;;;;;5013005;28;20065;-66
2023/11/17 00:56:01;;;;;;;65.78;40.63;;;20.60;99.90;;;;;;5012617;28;20542;-66
2023/11/17 00:58:27;;;;;;;61.90;41.22;;;20.60;99.90;;;;;;5010310;28;20101;-67
2023/11/17 01:00:57;;;;;;;60.35;39.85;;;20.50;99.90;;;;;;5012254;28;20475;-68
2023/11/17 01:03:24;;;;;;;73.03;39.60;;;20.40;99.90;;;;;;5010591;28;20078;-69
2023/11/17 01:05:55;;;;;;;50.10;29.33;;;20.30;99.90;;;;;;5012251;28;20104;-68
2023/11/17 01:08:21;;;;;;;46.50;28.00;;;20.30;99.90;;;;;;5010709;28;20075;-66
2023/11/17 01:10:48;;;;;;;46.75;29.10;;;20.20;99.90;;;;;;5012153;28;20094;-65
2023/11/17 01:13:14;;;;;;;48.38;29.25;;;20.10;99.90;;;;;;5011443;28;20078;-65
2023/11/17 01:15:41;;;;;;;56.92;29.27;;;20.10;99.90;;;;;;5010882;28;20177;-66
2023/11/17 01:18:08;;;;;;;45.47;29.90;;;20.00;99.90;;;;;;5010372;28;20074;-65
2023/11/17 01:20:40;;;;;;;40.83;29.40;;;20.00;99.90;;;;;;5011269;28;20071;-65
2023/11/17 01:23:08;;;;;;;46.58;30.15;;;19.90;99.90;;;;;;5014489;28;20096;-67
2023/11/17 01:25:35;;;;;;;41.85;28.88;;;19.90;99.90;;;;;;5010327;28;20559;-66
2023/11/17 01:28:03;;;;;;;43.63;28.45;;;19.80;99.90;;;;;;5011863;28;20083;-64
2023/11/17 01:30:31;;;;;;;42.28;28.50;;;19.70;99.90;;;;;;5011276;28;20100;-67
2023/11/17 01:32:57;;;;;;;46.22;28.95;;;19.70;99.90;;;;;;5010805;28;20158;-67
2023/11/17 01:35:24;;;;;;;43.85;29.65;;;19.60;99.90;;;;;;5011827;28;20130;-66
2023/11/17 01:37:51;;;;;;;46.80;30.45;;;19.50;99.90;;;;;;5009847;28;20137;-65
2023/11/17 01:40:22;;;;;;;50.58;31.40;;;19.50;99.90;;;;;;5011439;28;20070;-65
2023/11/17 01:42:49;;;;;;;47.47;31.05;;;19.40;99.90;;;;;;5011139;28;20519;-66
2023/11/17 01:45:15;;;;;;;48.92;31.23;;;19.30;99.90;;;;;;5011806;28;20230;-65
2023/11/17 01:47:42;;;;;;;55.45;32.70;;;19.30;99.90;;;;;;5009919;28;20083;-65
2023/11/17 01:50:12;;;;;;;52.78;33.58;;;19.20;99.90;;;;;;5011492;28;20472;-66
2023/11/17 01:52:43;;;;;;;51.10;31.70;;;19.10;99.90;;;;;;5009422;28;20075;-65
2023/11/17 01:55:11;;;;;;;53.65;30.73;;;19.10;99.90;;;;;;5011260;28;20081;-68
2023/11/17 01:57:38;;;;;;;58.28;33.92;;;19.10;99.90;;;;;;5011406;28;20072;-66
2023/11/17 02:00:13;;;;;;;61.10;33.42;;;19.10;99.90;;;;;;5010324;28;20076;-66
2023/11/17 02:02:51;;;;;;;49.35;31.42;;;19.00;99.90;;;;;;5011347;28;20075;-67
2023/11/17 02:05:24;;;;;;;54.35;31.92;;;19.00;99.90;;;;;;5011262;28;20078;-66
2023/11/17 02:08:39;;;;;;;53.83;35.22;;;18.90;99.90;;;;;;5011153;28;20083;-65
2023/11/17 02:11:14;;;;;;;78.32;40.33;;;18.90;99.90;;;;;;5001581;28;20116;-68
2023/11/17 02:13:49;;;;;;;70.68;38.72;;;18.80;99.90;;;;;;5010275;28;20157;-66
2023/11/17 02:16:24;;;;;;;64.18;36.97;;;18.70;99.90;;;;;;5008156;28;20080;-67
2023/11/17 02:18:55;;;;;;;53.15;34.08;;;18.70;99.90;;;;;;5011235;28;20548;-65
2023/11/17 02:21:30;;;;;;;48.97;31.88;;;18.70;99.90;;;;;;5009194;28;20219;-64
2023/11/17 02:23:59;;;;;;;62.37;31.10;;;18.70;99.90;;;;;;5001216;28;20133;-66
2023/11/17 02:26:37;;;;;;;49.15;30.42;;;18.70;99.90;;;;;;5011192;28;20076;-66
2023/11/17 02:29:18;;;;;;;57.20;30.40;;;18.70;99.90;;;;;;5009823;28;20152;-66
2023/11/17 02:31:45;;;;;;;43.42;31.05;;;18.60;99.90;;;;;;5009414;28;20099;-66
2023/11/17 02:34:14;;;;;;;47.53;29.70;;;18.60;99.90;;;;;;5010839;28;20067;-65
2023/11/17 02:36:41;;;;;;;49.15;33.75;;;18.60;99.90;;;;;;5010719;28;20080;-65
2023/11/17 02:39:15;;;;;;;44.08;31.52;;;18.50;99.90;;;;;;5008818;28;20220;-67
2023/11/17 02:41:56;;;;;;;43.65;32.75;;;18.50;99.90;;;;;;5010391;28;20100;-67
2023/11/17 02:44:33;;;;;;;43.35;32.00;;;18.50;99.90;;;;;;5008224;28;20569;-67
2023/11/17 02:47:04;;;;;;;38.17;28.58;;;18.50;99.90;;;;;;5010354;28;20097;-67
2023/11/17 02:49:40;;;;;;;39.25;28.70;;;18.50;99.90;;;;;;5010211;28;20118;-66
2023/11/17 02:52:42;;;;;;;37.08;30.67;;;18.40;99.90;;;;;;5008588;28;20157;-66
2023/11/17 02:55:15;;;;;;;42.55;30.55;;;18.40;99.90;;;;;;5010097;28;20086;-67
2023/11/17 02:57:44;;;;;;;45.00;29.73;;;18.40;99.90;;;;;;5010012;28;20073;-67
2023/11/17 03:00:11;;;;;;;36.60;27.80;;;18.30;99.90;;;;;;5008503;28;20083;-66
2023/11/17 03:02:40;;;;;;;37.33;30.38;;;18.30;99.90;;;;;;5010268;28;20072;-66
2023/11/17 03:05:13;;;;;;;37.97;28.73;;;18.30;99.90;;;;;;5008615;28;20483;-65
2023/11/17 03:07:40;;;;;;;45.03;30.75;;;18.30;99.90;;;;;;4999588;28;20079;-66
2023/11/17 03:10:07;;;;;;;37.92;29.20;;;18.20;99.90;;;;;;5008698;28;20160;-65
2023/11/17 03:12:34;;;;;;;37.80;27.70;;;18.20;99.90;;;;;;5010304;28;20066;-67
2023/11/17 03:15:00;;;;;;;36.78;26.90;;;18.10;99.90;;;;;;5010564;28;20085;-67
2023/11/17 03:17:27;;;;;;;64.10;28.65;;;18.10;99.90;;;;;;5010272;28;20130;-67
2023/11/17 03:19:53;;;;;;;50.20;28.38;;;18.10;99.90;;;;;;5008456;28;20182;-65
2023/11/17 03:22:20;;;;;;;38.55;28.30;;;18.10;99.90;;;;;;5010261;28;20079;-66
2023/11/17 03:24:46;;;;;;;36.70;28.67;;;18.10;99.90;;;;;;5010332;28;20086;-65
2023/11/17 03:27:14;;;;;;;31.45;25.80;;;18.00;99.90;;;;;;5010241;28;20115;-65
2023/11/17 03:29:44;;;;;;;34.40;28.27;;;18.00;99.90;;;;;;5008198;28;20215;-64
2023/11/17 03:32:13;;;;;;;39.90;26.90;;;18.00;99.90;;;;;;5010232;28;20540;-64
2023/11/17 03:34:40;;;;;;;38.65;28.52;;;18.00;99.90;;;;;;5008404;28;20081;-64
2023/11/17 03:37:07;;;;;;;39.92;29.08;;;18.00;99.90;;;;;;5010055;28;20079;-64
2023/11/17 03:39:42;;;;;;;39.25;29.88;;;17.90;99.90;;;;;;5008264;28;20073;-63
2023/11/17 03:42:13;;;;;;;44.17;31.05;;;17.90;99.90;;;;;;5008403;28;20087;-65
2023/11/17 03:44:39;;;;;;;35.25;28.10;;;17.90;99.90;;;;;;5009527;28;20126;-64
2023/11/17 03:47:09;;;;;;;38.17;29.38;;;17.90;99.90;;;;;;5010064;28;20092;-67
2023/11/17 03:49:35;;;;;;;43.03;32.47;;;17.90;99.90;;;;;;5007671;28;20092;-67
2023/11/17 03:52:03;;;;;;;44.67;31.75;;;17.80;99.90;;;;;;5010479;28;20094;-64
2023/11/17 03:54:32;;;;;;;47.03;33.42;;;17.70;99.90;;;;;;5010223;28;20088;-66
2023/11/17 03:57:03;;;;;;;46.97;34.17;;;17.70;99.90;;;;;;4999767;28;20085;-65
2023/11/17 03:59:30;;;;;;;51.72;36.10;;;17.70;99.90;;;;;;5013209;28;20240;-67
2023/11/17 04:01:57;;;;;;;57.30;37.72;;;17.70;99.90;;;;;;5010740;28;20228;-65
2023/11/17 04:04:25;;;;;;;58.92;39.15;;;17.70;99.90;;;;;;5012486;28;20621;-65
2023/11/17 04:06:54;;;;;;;61.20;42.38;;;17.70;99.90;;;;;;5013004;28;20623;-65
2023/11/17 04:09:24;;;;;;;62.45;41.92;;;17.60;99.90;;;;;;5011229;28;20086;-66
2023/11/17 04:11:58;;;;;;;62.88;43.22;;;17.60;99.90;;;;;;5012146;28;20108;-66
2023/11/17 04:14:27;;;;;;;67.95;43.58;;;17.60;99.90;;;;;;5010342;28;20077;-68
2023/11/17 04:16:53;;;;;;;62.05;43.17;;;17.60;99.90;;;;;;5011315;28;20081;-66
2023/11/17 04:19:19;;;;;;;63.80;41.28;;;17.60;99.90;;;;;;5013307;28;20095;-66
2023/11/17 04:21:46;;;;;;;57.85;39.97;;;17.60;99.90;;;;;;5011195;28;20081;-65
2023/11/17 04:24:13;;;;;;;53.45;39.00;;;17.50;99.90;;;;;;5012785;28;20121;-66
2023/11/17 04:26:42;;;;;;;72.53;46.47;;;17.50;99.90;;;;;;5012069;28;20556;-65
2023/11/17 04:29:09;;;;;;;50.63;39.40;;;17.50;99.90;;;;;;5013205;28;20095;-67
2023/11/17 04:31:36;;;;;;;50.13;37.33;;;17.50;99.90;;;;;;5011720;28;20088;-65
2023/11/17 04:34:02;;;;;;;58.50;36.83;;;17.50;99.90;;;;;;5011603;28;20072;-66
2023/11/17 04:36:32;;;;;;;63.28;36.05;;;17.50;99.90;;;;;;5013127;28;20160;-65
2023/11/17 04:38:59;;;;;;;52.08;35.95;;;17.50;99.90;;;;;;5013216;28;20081;-66
2023/11/17 04:41:27;;;;;;;59.75;35.58;;;17.50;99.90;;;;;;5012912;28;20088;-66
2023/11/17 04:43:53;;;;;;;52.28;35.78;;;17.40;99.90;;;;;;5009760;28;20190;-66
2023/11/17 04:46:20;;;;;;;52.35;38.28;;;17.40;99.90;;;;;;5012901;28;20090;-66
2023/11/17 04:48:47;;;;;;;57.72;39.45;;;17.40;99.90;;;;;;5011498;28;20111;-69
2023/11/17 04:51:13;;;;;;;55.88;40.00;;;17.40;99.90;;;;;;5012313;28;20120;-68
2023/11/17 04:53:40;;;;;;;49.72;37.10;;;17.30;99.90;;;;;;5010565;28;20090;-68
2023/11/17 04:56:07;;;;;;;70.32;39.42;;;17.30;99.90;;;;;;5012503;28;20073;-68
2023/11/17 04:58:34;;;;;;;53.33;37.42;;;17.40;99.90;;;;;;5010257;28;20077;-64
2023/11/17 05:01:00;;;;;;;61.83;39.70;;;17.30;99.90;;;;;;5012074;28;20076;-69
2023/11/17 05:03:29;;;;;;;52.80;37.92;;;17.30;99.90;;;;;;5012110;28;20459;-69
2023/11/17 05:05:55;;;;;;;49.60;37.20;;;17.30;99.90;;;;;;5003845;28;20078;-67
2023/11/17 05:08:22;;;;;;;45.42;35.55;;;17.30;99.90;;;;;;5012018;28;20086;-69
2023/11/17 05:10:49;;;;;;;42.20;34.78;;;17.30;99.90;;;;;;5010580;28;20175;-72
2023/11/17 05:13:15;;;;;;;47.88;36.03;;;17.30;99.90;;;;;;5012597;28;20123;-69
2023/11/17 05:15:46;;;;;;;47.40;36.75;;;17.20;99.90;;;;;;5012016;28;20572;-68
2023/11/17 05:18:13;;;;;;;51.88;36.15;;;17.20;99.90;;;;;;5012280;28;20602;-70
2023/11/17 05:20:41;;;;;;;55.03;38.80;;;17.30;99.90;;;;;;5010720;28;20088;-70
2023/11/17 05:23:11;;;;;;;47.55;35.28;;;17.30;99.90;;;;;;5010764;28;20104;-72
2023/11/17 05:25:40;;;;;;;49.33;35.65;;;17.30;99.90;;;;;;5010966;28;20078;-68
2023/11/17 05:28:10;;;;;;;53.00;38.70;;;17.20;99.90;;;;;;5012095;28;20562;-69
2023/11/17 05:30:37;;;;;;;65.68;41.42;;;17.20;99.90;;;;;;5012451;28;20093;-68
2023/11/17 05:33:04;;;;;;;68.70;47.30;;;17.20;99.90;;;;;;5014759;28;20078;-72
2023/11/17 05:35:37;;;;;;;60.30;47.47;;;17.10;99.90;;;;;;5004942;28;20156;-69
2023/11/17 05:38:04;;;;;;;60.47;47.45;;;17.10;99.90;;;;;;5004707;28;20104;-68
2023/11/17 05:40:33;;;;;;;79.85;48.38;;;17.10;99.90;;;;;;5014625;28;20090;-70
2023/11/17 05:43:00;;;;;;;69.60;46.28;;;17.10;99.90;;;;;;5014274;28;20193;-67
2023/11/17 05:45:27;;;;;;;60.00;43.30;;;17.00;99.90;;;;;;5012275;28;20086;-69
2023/11/17 05:47:53;;;;;;;57.70;43.30;;;17.00;99.90;;;;;;5010592;28;20076;-67
2023/11/17 05:50:20;;;;;;;62.28;43.47;;;17.00;99.90;;;;;;5010288;28;20695;-69
2023/11/17 05:52:47;;;;;;;59.65;43.28;;;17.00;99.90;;;;;;5009789;28;20093;-70
2023/11/17 05:55:16;;;;;;;59.45;41.47;;;17.00;99.90;;;;;;5011353;28;20099;-68
2023/11/17 05:57:44;;;;;;;68.28;47.33;;;17.00;99.90;;;;;;5011320;28;20078;-69
2023/11/17 06:00:18;;;;;;;64.72;48.05;;;17.00;99.90;;;;;;5010909;28;20081;-71
2023/11/17 06:02:44;;;;;;;75.07;53.25;;;16.90;99.90;;;;;;5009639;28;20079;-69
2023/11/17 06:05:13;;;;;;;90.55;62.47;;;16.90;99.90;;;;;;5009695;28;20515;-69
2023/11/17 06:07:40;;;;;;;92.88;66.72;;;16.90;99.90;;;;;;5009483;28;20252;-69
2023/11/17 06:10:08;;;;;;;93.72;68.55;;;16.90;99.90;;;;;;5009516;28;20096;-70
2023/11/17 06:12:35;;;;;;;122.43;78.43;;;16.90;99.90;;;;;;5009363;28;20081;-68
2023/11/17 06:15:01;;;;;;;127.03;81.65;;;16.80;99.90;;;;;;5011062;28;20628;-68
2023/11/17 06:17:28;;;;;;;118.72;78.80;;;16.80;99.90;;;;;;5010689;28;20086;-72
2023/11/17 06:20:00;;;;;;;123.18;83.07;;;16.70;99.90;;;;;;5008587;28;20101;-71
2023/11/17 06:22:30;;;;;;;119.63;81.30;;;16.60;99.90;;;;;;5010594;28;20128;-73
2023/11/17 06:24:56;;;;;;;128.27;82.18;;;16.60;99.90;;;;;;5011295;28;20129;-71
2023/11/17 06:27:23;;;;;;;131.02;79.32;;;16.50;99.90;;;;;;5010746;28;20144;-71
2023/11/17 06:29:50;;;;;;;116.53;80.38;;;16.50;99.90;;;;;;5010936;28;20077;-72
2023/11/17 06:32:17;;;;;;;123.57;83.22;;;16.60;99.90;;;;;;5009227;28;20094;-71
2023/11/17 06:34:43;;;;;;;129.00;86.85;;;16.60;99.90;;;;;;5010426;28;20078;-72
2023/11/17 06:37:11;;;;;;;112.32;80.18;;;16.60;99.90;;;;;;5009465;28;20452;-73
2023/11/17 06:39:39;;;;;;;120.10;83.00;;;16.60;99.90;;;;;;5010633;28;20083;-75
2023/11/17 06:42:05;;;;;;;139.52;89.10;;;16.60;99.90;;;;;;5009349;28;20185;-73
2023/11/17 06:44:32;;;;;;;116.07;77.50;;;16.60;99.90;;;;;;5009355;28;20124;-74
2023/11/17 06:46:58;;;;;;;116.40;77.15;;;16.70;99.90;;;;;;5008957;28;20082;-74
2023/11/17 06:49:27;;;;;;;99.28;75.35;;;16.70;99.90;;;;;;5010231;28;20077;-75
2023/11/17 06:51:57;;;;;;;99.05;72.32;;;16.70;99.90;;;;;;5008332;28;20098;-74
2023/11/17 06:54:24;;;;;;;105.50;72.90;;;16.70;99.90;;;;;;5010487;28;20152;-75
2023/11/17 06:56:51;;;;;;;100.50;70.47;;;16.70;99.90;;;;;;5010401;28;20094;-73
2023/11/17 06:59:36;;;;;;;103.50;72.43;;;16.60;99.90;;;;;;5010312;28;20093;-75
2023/11/17 07:02:03;;;;;;;106.53;77.10;;;16.70;99.90;;;;;;5010183;28;20204;-75
2023/11/17 07:04:30;;;;;;;111.85;77.65;;;16.60;99.90;;;;;;5010471;28;20090;-73
2023/11/17 07:06:59;;;;;;;106.88;80.13;;;16.60;99.90;;;;;;5007789;28;20093;-75
2023/11/17 07:09:30;;;;;;;102.78;73.18;;;16.60;99.90;;;;;;5010621;28;20085;-74
2023/11/17 07:12:01;;;;;;;105.05;76.32;;;16.50;99.90;;;;;;5009893;28;20124;-73
2023/11/17 07:14:30;;;;;;;109.30;75.18;;;16.50;99.90;;;;;;5008184;28;20081;-74
2023/11/17 07:16:57;;;;;;;100.20;70.35;;;16.50;99.90;;;;;;5010203;28;20086;-73
2023/11/17 07:19:24;;;;;;;103.32;72.00;;;16.50;99.90;;;;;;5008364;28;20098;-74
2023/11/17 07:21:51;;;;;;;97.75;71.68;;;16.50;99.90;;;;;;5010300;28;20448;-73
2023/11/17 07:24:18;;;;;;;105.22;73.35;;;16.50;99.90;;;;;;5010068;28;20085;-73
2023/11/17 07:26:46;;;;;;;116.35;72.32;;;16.40;99.90;;;;;;5007664;28;20160;-72
2023/11/17 07:29:16;;;;;;;100.75;72.78;;;16.40;99.90;;;;;;5011547;28;20602;-73
2023/11/17 07:31:48;;;;;;;107.68;76.88;;;16.50;99.90;;;;;;5012237;28;20098;-72
2023/11/17 07:34:15;;;;;;;110.05;79.25;;;16.40;99.90;;;;;;5014187;28;21462;-73
2023/11/17 07:36:44;;;;;;;109.70;76.35;;;16.40;99.90;;;;;;5012897;28;20086;-73
2023/11/17 07:39:14;;;;;;;116.22;81.93;;;16.40;99.90;;;;;;5013744;28;20105;-71
2023/11/17 07:41:42;;;;;;;109.20;78.05;;;16.30;99.90;;;;;;5012539;28;20093;-73
2023/11/17 07:44:09;;;;;;;106.43;76.50;;;16.30;99.90;;;;;;5013732;28;20139;-73
2023/11/17 07:46:36;;;;;;;105.88;77.50;;;16.20;99.90;;;;;;5011236;28;20081;-72
2023/11/17 07:49:03;;;;;;;113.65;76.95;;;16.30;99.90;;;;;;5013696;28;20101;-71
2023/11/17 07:51:30;;;;;;;107.57;76.55;;;16.20;99.90;;;;;;5013436;28;20094;-73
2023/11/17 07:53:56;;;;;;;107.78;78.70;;;16.20;99.90;;;;;;5007992;28;20090;-73
2023/11/17 07:56:23;;;;;;;105.05;78.22;;;16.20;99.90;;;;;;5015897;28;20074;-72
2023/11/17 07:58:49;;;;;;;107.15;77.95;;;16.20;99.90;;;;;;5011522;28;20082;-73
2023/11/17 08:01:17;;;;;;;111.22;81.05;;;16.10;99.90;;;;;;5013627;28;20481;-72
2023/11/17 08:03:45;;;;;;;102.65;75.00;;;16.10;99.90;;;;;;5010505;28;20164;-74
2023/11/17 08:06:12;;;;;;;116.22;80.40;;;16.10;99.90;;;;;;5013608;28;20086;-72
2023/11/17 08:08:41;;;;;;;102.78;76.45;;;16.10;99.90;;;;;;5013060;28;20552;-72
2023/11/17 08:11:09;;;;;;;107.25;76.05;;;16.10;99.90;;;;;;5012703;28;20103;-73
2023/11/17 08:13:39;;;;;;;107.78;79.95;;;16.10;99.90;;;;;;5013194;28;20113;-71
2023/11/17 08:16:06;;;;;;;105.70;76.10;;;16.10;99.90;;;;;;5013513;28;20105;-73
2023/11/17 08:18:37;;;;;;;125.68;81.85;;;16.10;99.90;;;;;;5013058;28;20078;-72
2023/11/17 08:21:06;;;;;;;103.90;77.70;;;16.00;99.90;;;;;;5011882;28;20144;-72
2023/11/17 08:23:32;;;;;;;111.28;78.25;;;16.00;99.90;;;;;;5011418;28;20097;-72
2023/11/17 08:26:00;;;;;;;129.30;90.07;;;16.10;99.90;;;;;;5012925;28;20564;-74
2023/11/17 08:28:28;;;;;;;128.57;88.28;;;16.00;99.90;;;;;;5012465;28;20136;-73
2023/11/17 08:30:54;;;;;;;126.60;84.72;;;16.00;99.90;;;;;;5013070;28;20085;-74
2023/11/17 08:33:21;;;;;;;111.70;85.63;;;16.00;99.90;;;;;;5013745;28;20073;-72
2023/11/17 08:35:54;;;;;;;130.88;87.55;;;16.00;99.90;;;;;;5017976;28;20101;-73
2023/11/17 08:38:20;;;;;;;122.00;85.93;;;16.00;99.90;;;;;;5014986;28;20089;-73
2023/11/17 08:40:47;;;;;;;116.32;81.53;;;16.00;99.90;;;;;;5009040;28;20094;-72
2023/11/17 08:43:18;;;;;;;109.03;81.18;;;16.00;99.90;;;;;;5012423;28;20110;-72
2023/11/17 08:45:47;;;;;;;106.88;78.18;;;15.90;99.90;;;;;;5012410;28;20089;-73
2023/11/17 08:48:13;;;;;;;109.65;78.60;;;15.90;99.90;;;;;;5012566;28;20285;-74
2023/11/17 08:50:41;;;;;;;109.20;83.15;;;15.90;99.90;;;;;;5013246;28;20097;-73
2023/11/17 08:53:08;;;;;;;110.82;82.72;;;15.90;99.90;;;;;;5011729;28;20084;-74
2023/11/17 08:55:34;;;;;;;102.50;77.13;;;15.80;99.90;;;;;;5010982;28;20082;-73
2023/11/17 08:58:01;;;;;;;119.50;81.93;;;15.80;99.90;;;;;;5012305;28;20082;-73
2023/11/17 09:00:30;;;;;;;110.22;80.43;;;15.80;99.90;;;;;;5012575;28;20738;-71
2023/11/17 09:02:56;;;;;;;121.75;87.53;;;15.80;99.90;;;;;;5013558;28;20082;-73
2023/11/17 09:05:25;;;;;;;120.55;88.10;;;15.90;99.90;;;;;;5010759;28;20090;-72
2023/11/17 09:07:51;;;;;;;113.72;80.13;;;15.80;99.90;;;;;;4998652;28;20086;-72
2023/11/17 09:10:22;;;;;;;107.32;83.47;;;15.80;99.90;;;;;;5013503;28;20105;-74
2023/11/17 09:12:49;;;;;;;114.38;85.00;;;15.80;99.90;;;;;;5012061;28;20105;-74
2023/11/17 09:15:18;;;;;;;119.90;88.45;;;15.70;99.90;;;;;;5011679;28;20109;-75
2023/11/17 09:17:52;;;;;;;115.57;89.90;;;15.70;99.90;;;;;;5009592;28;20092;-72
2023/11/17 09:20:21;;;;;;;121.25;88.72;;;15.70;99.90;;;;;;5013158;28;20132;-72
2023/11/17 09:22:49;;;;;;;116.50;84.85;;;15.60;99.90;;;;;;5012137;28;20087;-72
2023/11/17 09:25:17;;;;;;;111.95;84.50;;;15.70;99.90;;;;;;5011350;28;20081;-74
2023/11/17 09:27:49;;;;;;;114.82;85.47;;;15.70;99.90;;;;;;5012396;28;20144;-72
2023/11/17 09:30:15;;;;;;;106.88;81.38;;;15.60;99.90;;;;;;5007524;28;20086;-74
2023/11/17 09:32:47;;;;;;;116.30;91.22;;;15.70;99.90;;;;;;5012518;28;20095;-71
2023/11/17 09:35:17;;;;;;;125.22;95.20;;;15.60;99.90;;;;;;5013141;28;20074;-72
2023/11/17 09:37:51;;;;;;;127.95;96.60;;;15.50;99.90;;;;;;5010479;28;20542;-71
2023/11/17 09:40:23;;;;;;;120.38;91.45;;;15.60;99.90;;;;;;5012282;28;20153;-70
2023/11/17 09:42:54;;;;;;;129.63;100.78;;;15.60;99.90;;;;;;5012529;28;20078;-72
2023/11/17 09:45:25;;;;;;;120.38;92.10;;;15.50;99.90;;;;;;5011890;28;20080;-74
2023/11/17 09:47:55;;;;;;;125.28;95.35;;;15.50;99.90;;;;;;5015779;28;20133;-71
2023/11/17 09:50:24;;;;;;;127.85;96.45;;;15.50;99.90;;;;;;5012511;28;20074;-72
2023/11/17 09:52:54;;;;;;;128.30;95.03;;;15.50;99.90;;;;;;5010858;28;20109;-71
2023/11/17 09:55:22;;;;;;;124.13;93.85;;;15.50;99.90;;;;;;5014385;28;20076;-73
2023/11/17 09:57:55;;;;;;;128.23;95.90;;;15.50;99.90;;;;;;5011931;28;20082;-72
2023/11/17 10:00:27;;;;;;;116.35;93.00;;;15.50;99.90;;;;;;5013155;28;20086;-73
2023/11/17 10:03:01;;;;;;;125.07;92.65;;;15.50;99.90;;;;;;4996466;28;20110;-72
2023/11/17 10:05:31;;;;;;;136.43;96.18;;;15.50;99.90;;;;;;5001444;28;20066;-72
2023/11/17 10:08:07;;;;;;;123.10;97.25;;;15.40;99.90;;;;;;5011977;28;20564;-73
2023/11/17 10:10:39;;;;;;;131.90;96.28;;;15.40;99.90;;;;;;5011168;28;20105;-73
2023/11/17 10:13:18;;;;;;;120.53;92.55;;;15.50;99.90;;;;;;5011553;28;20079;-74
2023/11/17 10:15:46;;;;;;;121.38;91.80;;;15.50;99.90;;;;;;5011599;28;20169;-73
2023/11/17 10:18:21;;;;;;;131.60;98.88;;;15.40;99.90;;;;;;5011779;28;20546;-73
2023/11/17 10:20:48;;;;;;;143.55;107.40;;;15.30;99.90;;;;;;5011735;28;20086;-74
2023/11/17 10:23:15;;;;;;;143.38;105.50;;;15.30;99.90;;;;;;5010440;28;20081;-73
2023/11/17 10:25:43;;;;;;;155.30;122.68;;;15.40;99.90;;;;;;5011359;28;20086;-72
2023/11/17 10:28:10;;;;;;;174.98;127.07;;;15.30;99.90;;;;;;4994273;28;20092;-72
2023/11/17 10:30:41;;;;;;;153.30;111.90;;;15.30;99.90;;;;;;5011179;28;20110;-72
2023/11/17 10:33:30;;;;;;;151.20;116.15;;;15.30;99.90;;;;;;5009565;28;20074;-73
2023/11/17 10:36:11;;;;;;;145.60;111.15;;;15.30;99.90;;;;;;5011281;28;20081;-73
2023/11/17 10:38:45;;;;;;;150.43;111.68;;;15.30;99.90;;;;;;5008785;28;20082;-74
2023/11/17 10:41:14;;;;;;;145.77;112.40;;;15.30;99.90;;;;;;5001080;28;20610;-72
2023/11/17 10:43:51;;;;;;;143.65;112.05;;;15.40;99.90;;;;;;5010402;28;20177;-71
2023/11/17 10:46:23;;;;;;;157.18;119.25;;;15.40;99.90;;;;;;5008864;28;20077;-72
2023/11/17 10:48:52;;;;;;;155.85;116.38;;;15.30;99.90;;;;;;5008865;28;20421;-72
2023/11/17 10:51:21;;;;;;;143.85;111.90;;;15.20;99.90;;;;;;5010493;28;20099;-72
2023/11/17 10:54:12;;;;;;;141.65;106.18;;;15.20;99.90;;;;;;5010220;28;20539;-72
2023/11/17 10:56:52;;;;;;;146.32;112.70;;;15.20;99.90;;;;;;5009934;28;20126;-73
2023/11/17 10:59:19;;;;;;;139.93;110.53;;;15.20;99.90;;;;;;5008372;28;20070;-74
2023/11/17 11:01:47;;;;;;;143.38;111.15;;;15.20;99.90;;;;;;5008874;28;20092;-73
2023/11/17 11:04:25;;;;;;;145.25;111.47;;;15.10;99.90;;;;;;5008126;28;20083;-74
2023/11/17 11:06:58;;;;;;;151.30;111.80;;;15.10;99.90;;;;;;5010239;28;20422;-74
2023/11/17 11:09:38;;;;;;;138.00;106.78;;;15.10;99.90;;;;;;5010130;28;20502;-74
2023/11/17 11:12:13;;;;;;;128.10;106.15;;;15.10;99.90;;;;;;5010166;28;20095;-75
2023/11/17 11:14:41;;;;;;;143.30;108.13;;;15.10;99.90;;;;;;5008467;28;20597;-75
2023/11/17 11:17:11;;;;;;;138.13;102.65;;;15.10;99.90;;;;;;5010033;28;20128;-73
2023/11/17 11:19:38;;;;;;;143.60;108.55;;;15.10;99.90;;;;;;5008260;28;20169;-74
2023/11/17 11:22:07;;;;;;;142.88;109.28;;;15.00;99.90;;;;;;5010565;28;20079;-73
2023/11/17 11:24:37;;;;;;;140.10;102.93;;;15.00;99.90;;;;;;4995572;28;20097;-74
2023/11/17 11:27:05;;;;;;;147.80;111.15;;;15.00;99.90;;;;;;5006922;28;20490;-74
2023/11/17 11:29:38;;;;;;;133.82;103.57;;;15.00;99.90;;;;;;5009883;28;20080;-74
2023/11/17 11:32:06;;;;;;;141.65;116.63;;;15.00;99.90;;;;;;5009693;28;20238;-74
2023/11/17 11:34:34;;;;;;;148.75;111.85;;;15.00;99.90;;;;;;5008632;28;20097;-74
2023/11/17 11:37:03;;;;;;;147.77;111.80;;;15.00;99.90;;;;;;5010440;28;20086;-74
2023/11/17 11:39:31;;;;;;;149.75;113.15;;;15.00;99.90;;;;;;5008132;28;20088;-74
2023/11/17 11:42:00;;;;;;;130.77;101.78;;;14.90;99.90;;;;;;5010067;28;20226;-73
2023/11/17 11:44:27;;;;;;;139.38;109.07;;;14.90;99.90;;;;;;5009565;28;20169;-74
2023/11/17 11:46:55;;;;;;;138.75;106.70;;;15.00;99.90;;;;;;5007985;28;20092;-73
2023/11/17 11:49:22;;;;;;;127.00;100.90;;;14.90;99.90;;;;;;4990430;28;20099;-74
2023/11/17 11:51:59;;;;;;;148.90;110.03;;;14.90;99.90;;;;;;5006362;28;20569;-73
2023/11/17 11:54:26;;;;;;;;;;;14.80;99.90;;;;;;5008358;28;20090;-75
2023/11/17 11:56:54;;;;;;;150.02;112.28;;;14.80;99.90;;;;;;5008660;28;20021;-73
2023/11/17 11:59:22;;;;;;;160.90;119.07;;;14.70;99.90;;;;;;5009712;28;20083;-73
2023/11/17 12:01:51;;;;;;;146.40;110.00;;;14.70;99.90;;;;;;5007767;28;20570;-73
2023/11/17 12:04:20;;;;;;;135.25;103.53;;;14.70;99.90;;;;;;5009853;28;20078;-74
2023/11/17 12:06:46;;;;;;;133.82;101.93;;;14.80;99.90;;;;;;5007399;28;20084;-73
2023/11/17 12:09:16;;;;;;;130.98;100.57;;;14.70;99.90;;;;;;5008165;28;20079;-73
2023/11/17 12:11:49;;;;;;;153.90;106.63;;;14.70;99.90;;;;;;4995696;28;20103;-72
2023/11/17 12:14:26;;;;;;;143.38;107.85;;;14.80;99.90;;;;;;5009843;28;20080;-72
2023/11/17 12:16:54;;;;;;;134.90;103.18;;;14.70;99.90;;;;;;5011250;28;20436;-73
2023/11/17 12:19:33;;;;;;;132.75;106.18;;;14.70;99.90;;;;;;5013015;28;20086;-72
2023/11/17 12:22:03;;;;;;;142.02;110.95;;;14.70;99.90;;;;;;5013127;28;20553;-73
2023/11/17 12:24:33;;;;;;;144.00;108.10;;;14.70;99.90;;;;;;5011906;28;20110;-72
2023/11/17 12:27:00;;;;;;;138.23;107.47;;;14.70;99.90;;;;;;5012954;28;20102;-74
2023/11/17 12:29:31;;;;;;;157.65;115.97;;;14.70;99.90;;;;;;5011303;28;20182;-72
2023/11/17 12:32:00;;;;;;;139.50;106.95;;;14.60;99.90;;;;;;5012678;28;20099;-72